Time;durP1;ratioP1;P1;durP2;ratioP2;P2;SDS_P1;SDS_P2;PMS_P1;PMS_P2;Temp;Humidity;BMP_temperature;BMP_pressure;BME280_temperature;BME280_humidity;BME280_pressure;Samples;Min_cycle;Max_cycle;Signal;HPM_P1;HPM_P2
2024/02/23 00:02:43;;;;;;;0.97;0.97;;;8.60;99.90;;;;;;10455338;28;20229;-81
2024/02/23 00:07:45;;;;;;;0.60;0.60;;;8.70;99.90;;;;;;10467735;28;20205;-81
2024/02/23 00:12:49;;;;;;;0.83;0.83;;;8.60;99.90;;;;;;10440840;28;20236;-81
2024/02/23 00:17:51;;;;;;;0.60;0.60;;;8.70;99.90;;;;;;10458195;28;20205;-81
2024/02/23 00:22:53;;;;;;;0.60;0.60;;;8.70;99.90;;;;;;10457858;28;20232;-81
2024/02/23 00:27:57;;;;;;;0.70;0.70;;;8.70;99.90;;;;;;10463825;28;20201;-81
2024/02/23 00:32:59;;;;;;;0.50;0.50;;;8.80;99.90;;;;;;10455115;28;20212;-81
2024/02/23 00:38:02;;;;;;;0.50;0.50;;;8.80;99.90;;;;;;10464195;28;20275;-81
2024/02/23 00:43:06;;;;;;;0.57;0.57;;;8.80;99.90;;;;;;10456050;28;20221;-81
2024/02/23 00:48:08;;;;;;;0.60;0.60;;;8.80;99.90;;;;;;10441307;28;20197;-81
2024/02/23 00:53:11;;;;;;;0.40;0.40;;;8.80;99.90;;;;;;10457722;28;20795;-81
2024/02/23 00:58:15;;;;;;;0.40;0.40;;;8.80;99.90;;;;;;10453262;28;20267;-81
2024/02/23 01:03:18;;;;;;;0.40;0.40;;;8.80;99.90;;;;;;10457498;28;20729;-80
2024/02/23 01:08:20;;;;;;;0.40;0.40;;;8.80;99.90;;;;;;10452528;28;20254;-81
2024/02/23 01:13:24;;;;;;;0.47;0.47;;;8.80;99.90;;;;;;10454203;28;20220;-81
2024/02/23 01:18:26;;;;;;;0.40;0.40;;;8.80;99.90;;;;;;10450946;28;20216;-81
2024/02/23 01:23:29;;;;;;;0.50;0.50;;;8.80;99.90;;;;;;10438256;28;20225;-81
2024/02/23 01:28:33;;;;;;;0.50;0.50;;;8.80;99.90;;;;;;10449003;28;20190;-81
2024/02/23 01:33:36;;;;;;;0.60;0.60;;;8.80;99.90;;;;;;10447980;28;20707;-81
2024/02/23 01:38:38;;;;;;;0.50;0.50;;;8.80;99.90;;;;;;10446287;28;20201;-81
2024/02/23 01:43:42;;;;;;;0.40;0.40;;;8.70;99.90;;;;;;10453712;28;20660;-80
2024/02/23 01:48:44;;;;;;;0.50;0.50;;;8.70;99.90;;;;;;10452753;28;20205;-81
2024/02/23 01:53:47;;;;;;;0.50;0.50;;;8.70;99.90;;;;;;10453575;28;20247;-80
2024/02/23 01:58:50;;;;;;;0.40;0.40;;;8.70;99.90;;;;;;10450464;28;20208;-81
2024/02/23 02:03:53;;;;;;;0.40;0.40;;;8.70;99.90;;;;;;10458816;28;20639;-80
2024/02/23 02:08:55;;;;;;;0.40;0.40;;;8.70;99.90;;;;;;10450418;28;20193;-81
2024/02/23 02:13:59;;;;;;;0.40;0.40;;;8.70;99.90;;;;;;10460784;28;20216;-81
2024/02/23 02:19:01;;;;;;;0.40;0.40;;;8.70;99.90;;;;;;10459281;28;20704;-81
2024/02/23 02:24:04;;;;;;;0.40;0.40;;;8.70;99.90;;;;;;10468077;28;20213;-81
2024/02/23 02:29:08;;;;;;;0.40;0.40;;;8.70;99.90;;;;;;10452522;28;20216;-81
2024/02/23 02:34:12;;;;;;;0.40;0.40;;;8.70;99.90;;;;;;10444335;28;20618;-81
2024/02/23 02:39:15;;;;;;;0.40;0.40;;;8.70;99.90;;;;;;10451512;28;20217;-80
2024/02/23 02:44:18;;;;;;;0.40;0.40;;;8.70;99.90;;;;;;10452966;28;20255;-80
2024/02/23 02:49:21;;;;;;;0.40;0.40;;;8.70;99.90;;;;;;10441867;28;20706;-80
2024/02/23 02:54:23;;;;;;;0.50;0.50;;;8.70;99.90;;;;;;10439035;28;20232;-81
2024/02/23 02:59:27;;;;;;;0.50;0.50;;;8.70;99.90;;;;;;10451908;28;20225;-80
2024/02/23 03:04:29;;;;;;;0.50;0.50;;;8.70;99.90;;;;;;10454671;28;20210;-81
2024/02/23 03:09:31;;;;;;;0.50;0.50;;;8.70;99.90;;;;;;10450902;28;20262;-80
2024/02/23 03:14:37;;;;;;;0.53;0.53;;;8.70;99.90;;;;;;10434705;28;20205;-81
2024/02/23 03:19:39;;;;;;;0.50;0.50;;;8.60;99.90;;;;;;10452787;28;20217;-80
2024/02/23 03:24:42;;;;;;;0.40;0.40;;;8.60;99.90;;;;;;10452186;28;20225;-81
2024/02/23 03:29:45;;;;;;;0.50;0.50;;;8.60;99.90;;;;;;10448803;28;20703;-81
2024/02/23 03:34:48;;;;;;;0.50;0.50;;;8.60;99.90;;;;;;10439663;28;20206;-81
2024/02/23 03:39:50;;;;;;;0.60;0.60;;;8.70;99.90;;;;;;10452393;28;20282;-80
2024/02/23 03:44:54;;;;;;;0.50;0.50;;;8.70;99.90;;;;;;10455364;28;20631;-81
2024/02/23 03:49:56;;;;;;;0.60;0.60;;;8.70;99.90;;;;;;10454668;28;20233;-81
2024/02/23 03:54:59;;;;;;;0.67;0.67;;;8.70;99.90;;;;;;10453965;28;20200;-80
2024/02/23 04:00:03;;;;;;;0.50;0.50;;;8.70;99.90;;;;;;10440142;28;20894;-81
2024/02/23 04:05:14;;;;;;;0.73;0.73;;;8.60;99.90;;;;;;10453179;28;20686;-80
2024/02/23 04:10:16;;;;;;;0.90;0.90;;;8.60;99.90;;;;;;10448085;28;20232;-81
2024/02/23 04:15:20;;;;;;;0.90;0.90;;;8.60;99.90;;;;;;10442692;28;20201;-81
2024/02/23 04:20:22;;;;;;;0.90;0.90;;;8.50;99.90;;;;;;10448374;28;20225;-81
2024/02/23 04:25:25;;;;;;;0.83;0.83;;;8.50;99.50;;;;;;10425635;28;20240;-81
2024/02/23 04:30:29;;;;;;;0.70;0.70;;;8.50;98.90;;;;;;10431396;28;20218;-80
2024/02/23 04:35:31;;;;;;;0.90;0.90;;;8.50;99.10;;;;;;10452522;28;20182;-81
2024/02/23 04:40:34;;;;;;;0.73;0.73;;;8.40;99.00;;;;;;10444388;28;20218;-81
2024/02/23 04:45:37;;;;;;;1.00;1.00;;;8.30;99.10;;;;;;10444704;28;20291;-81
2024/02/23 04:50:40;;;;;;;0.87;0.87;;;8.30;98.50;;;;;;10444359;28;20509;-81
2024/02/23 04:55:42;;;;;;;0.90;0.90;;;8.30;98.40;;;;;;10436111;28;20615;-81
2024/02/23 05:00:46;;;;;;;0.90;0.90;;;8.20;98.10;;;;;;10449179;28;20287;-80
2024/02/23 05:05:50;;;;;;;0.90;0.90;;;8.20;98.00;;;;;;10449100;28;20218;-81
2024/02/23 05:10:53;;;;;;;0.87;0.87;;;8.20;97.80;;;;;;10449119;28;20275;-80
2024/02/23 05:15:58;;;;;;;0.80;0.80;;;8.20;98.40;;;;;;10433199;28;20260;-80
2024/02/23 05:21:01;;;;;;;0.97;0.97;;;8.20;98.30;;;;;;10445751;28;20232;-81
2024/02/23 05:26:04;;;;;;;0.80;0.80;;;;;;;;;;10451632;28;20252;-81
2024/02/23 05:31:08;;;;;;;0.70;0.70;;;8.00;98.70;;;;;;10438824;28;20217;-80
2024/02/23 05:36:10;;;;;;;0.90;0.90;;;8.00;98.60;;;;;;10456116;28;20197;-80
2024/02/23 05:41:13;;;;;;;0.83;0.83;;;7.90;98.80;;;;;;10421228;28;20639;-80
2024/02/23 05:46:17;;;;;;;0.63;0.63;;;7.80;98.70;;;;;;10428755;28;20218;-79
2024/02/23 05:51:20;;;;;;;0.70;0.70;;;7.70;98.80;;;;;;10423224;28;20236;-79
2024/02/23 05:56:23;;;;;;;0.70;0.70;;;7.60;98.80;;;;;;10435649;28;20185;-79
2024/02/23 06:01:27;;;;;;;0.70;0.70;;;7.60;99.20;;;;;;10462650;28;20239;-79
2024/02/23 06:06:31;;;;;;;0.90;0.90;;;7.50;99.10;;;;;;10455400;28;20296;-79
2024/02/23 06:11:33;;;;;;;0.70;0.70;;;7.40;99.70;;;;;;10473709;28;20717;-77
2024/02/23 06:16:37;;;;;;;0.90;0.90;;;7.30;99.90;;;;;;10453817;28;20611;-77
2024/02/23 06:21:39;;;;;;;0.60;0.60;;;7.20;99.90;;;;;;10421070;28;20683;-77
2024/02/23 06:26:42;;;;;;;0.70;0.70;;;7.10;99.90;;;;;;10428951;28;20710;-76
2024/02/23 06:31:48;;;;;;;0.50;0.50;;;7.00;99.90;;;;;;10435598;28;20237;-76
2024/02/23 06:36:51;;;;;;;0.60;0.60;;;7.10;99.90;;;;;;10431207;28;20275;-76
2024/02/23 06:41:53;;;;;;;0.60;0.60;;;7.10;99.90;;;;;;10443016;28;20229;-76
2024/02/23 06:46:57;;;;;;;0.70;0.70;;;7.10;99.90;;;;;;10455691;28;20221;-76
2024/02/23 06:51:59;;;;;;;0.40;0.40;;;7.10;99.90;;;;;;10481731;22;20240;-75
2024/02/23 06:57:03;;;;;;;0.50;0.50;;;7.10;99.90;;;;;;10496558;28;20262;-77
2024/02/23 07:02:07;;;;;;;0.60;0.60;;;7.10;99.90;;;;;;10509616;28;20216;-76
2024/02/23 07:07:11;;;;;;;0.50;0.50;;;7.10;99.90;;;;;;10538486;28;21010;-76
2024/02/23 07:12:14;;;;;;;0.50;0.50;;;7.10;99.90;;;;;;10538135;28;20261;-75
2024/02/23 07:17:19;;;;;;;0.50;0.50;;;7.20;99.90;;;;;;10538632;28;20199;-77
2024/02/23 07:22:21;;;;;;;0.50;0.50;;;7.30;99.90;;;;;;10531714;28;20228;-76
2024/02/23 07:27:23;;;;;;;0.60;0.60;;;7.50;99.90;;;;;;10537661;28;20268;-76
2024/02/23 07:32:29;;;;;;;0.50;0.50;;;7.60;99.90;;;;;;10529170;28;20220;-76
2024/02/23 07:37:31;;;;;;;0.63;0.63;;;7.70;99.90;;;;;;10537532;28;20629;-76
2024/02/23 07:42:35;;;;;;;0.60;0.60;;;7.80;99.90;;;;;;10537338;28;20223;-74
2024/02/23 07:47:39;;;;;;;0.60;0.60;;;7.90;99.90;;;;;;10536566;28;20218;-76
2024/02/23 07:52:41;;;;;;;0.50;0.50;;;8.00;99.90;;;;;;10531007;28;20235;-74
2024/02/23 07:57:43;;;;;;;0.10;0.10;;;8.10;99.90;;;;;;10536685;28;20200;-75
2024/02/23 08:02:47;;;;;;;0.50;0.50;;;8.20;99.90;;;;;;10534726;28;20242;-75
2024/02/23 08:07:49;;;;;;;0.50;0.50;;;8.20;99.90;;;;;;10535747;28;20220;-73
2024/02/23 08:12:52;;;;;;;0.30;0.30;;;8.30;99.90;;;;;;10535528;28;20652;-74
2024/02/23 08:17:56;;;;;;;0.10;0.10;;;8.30;99.90;;;;;;10535579;28;20196;-75
2024/02/23 08:22:58;;;;;;;0.50;0.50;;;8.30;99.90;;;;;;10535270;28;20230;-75
2024/02/23 08:28:00;;;;;;;0.50;0.50;;;8.30;99.90;;;;;;10535070;28;20304;-77
2024/02/23 08:33:05;;;;;;;0.40;0.40;;;8.40;99.90;;;;;;10523938;28;20219;-77
2024/02/23 08:38:08;;;;;;;0.40;0.40;;;8.40;99.90;;;;;;10533461;28;20207;-74
2024/02/23 08:43:11;;;;;;;0.50;0.50;;;8.50;99.50;;;;;;10526234;28;20269;-76
2024/02/23 08:48:14;;;;;;;0.40;0.40;;;8.50;99.00;;;;;;10534081;28;20617;-75
2024/02/23 08:53:17;;;;;;;0.30;0.30;;;8.50;98.30;;;;;;10533733;28;20228;-77
2024/02/23 08:58:19;;;;;;;0.40;0.40;;;8.50;98.40;;;;;;10534074;28;20515;-75
2024/02/23 09:03:23;;;;;;;0.40;0.40;;;8.60;98.00;;;;;;10533851;28;20211;-76
2024/02/23 09:08:25;;;;;;;0.30;0.30;;;8.70;98.30;;;;;;10532798;28;20227;-75
2024/02/23 09:13:29;;;;;;;0.40;0.40;;;8.80;97.80;;;;;;10533355;28;20684;-76
2024/02/23 09:18:33;;;;;;;0.30;0.30;;;8.80;97.00;;;;;;10533259;28;20196;-75
2024/02/23 09:23:35;;;;;;;0.40;0.40;;;8.90;97.10;;;;;;10533135;28;20228;-76
2024/02/23 09:28:38;;;;;;;0.20;0.20;;;9.00;96.60;;;;;;10532968;28;20220;-77
2024/02/23 09:33:41;;;;;;;0.40;0.40;;;9.10;96.60;;;;;;10533260;28;20701;-75
2024/02/23 09:38:45;;;;;;;0.30;0.30;;;9.10;96.60;;;;;;10524714;28;20608;-74
2024/02/23 09:43:48;;;;;;;0.40;0.40;;;9.20;96.70;;;;;;10532824;28;20250;-76
2024/02/23 09:48:52;;;;;;;0.40;0.40;;;9.20;96.20;;;;;;10531412;28;20285;-76
2024/02/23 09:53:55;;;;;;;0.30;0.30;;;9.20;95.80;;;;;;10532611;28;20232;-76
2024/02/23 09:59:00;;;;;;;0.40;0.40;;;9.30;96.30;;;;;;10532567;28;20608;-75
2024/02/23 10:04:06;;;;;;;0.20;0.20;;;9.30;94.50;;;;;;10532286;28;20212;-76
2024/02/23 10:09:09;;;;;;;0.30;0.30;;;9.40;94.50;;;;;;10532405;28;20201;-75
2024/02/23 10:14:12;;;;;;;0.30;0.30;;;9.40;94.20;;;;;;10524145;28;20616;-75
2024/02/23 10:19:16;;;;;;;0.40;0.40;;;9.40;94.70;;;;;;10538617;28;20204;-76
2024/02/23 10:24:19;;;;;;;0.30;0.30;;;9.50;94.30;;;;;;10535524;28;20231;-76
2024/02/23 10:29:21;;;;;;;0.40;0.40;;;9.60;93.70;;;;;;10538493;28;20203;-75
2024/02/23 10:34:27;;;;;;;0.40;0.40;;;9.70;93.80;;;;;;10540046;28;20709;-76
2024/02/23 10:39:31;;;;;;;0.30;0.30;;;9.70;93.50;;;;;;10530489;28;20208;-77
2024/02/23 10:44:34;;;;;;;0.40;0.40;;;9.70;94.10;;;;;;10537960;28;20220;-75
2024/02/23 10:49:38;;;;;;;0.30;0.30;;;9.90;94.50;;;;;;10538702;28;20625;-75
2024/02/23 10:54:41;;;;;;;0.40;0.40;;;9.90;93.00;;;;;;10520849;28;20216;-76
2024/02/23 10:59:45;;;;;;;0.30;0.30;;;9.80;92.70;;;;;;10529603;28;20200;-74
2024/02/23 11:04:51;;;;;;;0.20;0.20;;;9.80;93.10;;;;;;10522472;28;20246;-74
2024/02/23 11:09:54;;;;;;;0.23;0.23;;;9.90;93.20;;;;;;10532278;28;20689;-76
2024/02/23 11:14:59;;;;;;;0.20;0.20;;;10.00;93.60;;;;;;10523621;28;20211;-76
2024/02/23 11:20:06;;;;;;;0.30;0.30;;;10.10;92.00;;;;;;10533079;28;20207;-74
2024/02/23 11:25:10;;;;;;;0.30;0.30;;;10.10;91.70;;;;;;10533862;28;20688;-78
2024/02/23 11:30:13;;;;;;;0.30;0.30;;;10.20;92.40;;;;;;10516580;28;20204;-76
2024/02/23 11:35:18;;;;;;;0.40;0.40;;;10.30;92.00;;;;;;10523986;28;20251;-75
2024/02/23 11:40:21;;;;;;;0.30;0.30;;;10.30;91.70;;;;;;10530802;28;20216;-76
2024/02/23 11:45:27;;;;;;;0.40;0.40;;;10.40;91.20;;;;;;10533225;28;20929;-77
2024/02/23 11:50:31;;;;;;;0.20;0.20;;;10.40;91.70;;;;;;10555143;28;20777;-75
2024/02/23 11:55:33;;;;;;;0.30;0.30;;;10.50;91.90;;;;;;10538509;28;20192;-76
2024/02/23 12:00:37;;;;;;;0.20;0.20;;;10.60;91.10;;;;;;10546563;28;20200;-76
2024/02/23 12:05:40;;;;;;;0.30;0.30;;;10.60;90.40;;;;;;10534284;28;20230;-74
2024/02/23 12:10:43;;;;;;;0.23;0.23;;;10.50;90.10;;;;;;10529624;28;20269;-75
2024/02/23 12:15:45;;;;;;;0.20;0.20;;;10.50;91.10;;;;;;10546909;28;20206;-76
2024/02/23 12:20:49;;;;;;;0.27;0.27;;;10.50;90.00;;;;;;10546754;28;20198;-77
2024/02/23 12:25:57;;;;;;;0.30;0.30;;;10.50;89.60;;;;;;10538435;28;20231;-76
2024/02/23 12:31:02;;;;;;;0.10;0.10;;;10.50;90.10;;;;;;10525255;28;20215;-75
2024/02/23 12:36:07;;;;;;;0.20;0.20;;;10.60;90.50;;;;;;10535336;28;20188;-76
2024/02/23 12:41:11;;;;;;;0.30;0.30;;;10.70;90.80;;;;;;10531374;28;20232;-74
2024/02/23 12:46:14;;;;;;;0.40;0.40;;;10.80;89.60;;;;;;10533275;28;20231;-76
2024/02/23 12:51:17;;;;;;;0.30;0.30;;;10.80;88.90;;;;;;10545298;22;20307;-76
2024/02/23 12:56:20;;;;;;;0.20;0.20;;;10.70;90.20;;;;;;10452563;28;20208;-76
2024/02/23 13:01:22;;;;;;;0.30;0.30;;;10.80;90.60;;;;;;10446842;28;20286;-76
2024/02/23 13:06:27;;;;;;;0.10;0.10;;;10.80;90.60;;;;;;10443438;28;20221;-76
2024/02/23 13:11:29;;;;;;;0.33;0.33;;;10.90;90.80;;;;;;10441791;28;20222;-76
2024/02/23 13:16:31;;;;;;;0.30;0.30;;;11.00;90.90;;;;;;10439181;28;20198;-76
2024/02/23 13:21:35;;;;;;;0.40;0.40;;;11.00;89.70;;;;;;10442048;28;20217;-76
2024/02/23 13:26:37;;;;;;;0.17;0.17;;;10.90;90.00;;;;;;10436858;28;20695;-77
2024/02/23 13:31:40;;;;;;;0.30;0.30;;;10.90;90.10;;;;;;10441689;28;20649;-76
2024/02/23 13:36:43;;;;;;;0.30;0.30;;;10.90;90.80;;;;;;10427924;28;20202;-76
2024/02/23 13:41:46;;;;;;;0.50;0.50;;;11.00;90.80;;;;;;10423726;28;20220;-77
2024/02/23 13:46:48;;;;;;;0.40;0.40;;;11.00;90.60;;;;;;10435817;28;20248;-77
2024/02/23 13:51:52;;;;;;;0.30;0.30;;;11.00;90.30;;;;;;10445207;28;20786;-77
2024/02/23 13:56:54;;;;;;;0.30;0.30;;;10.90;91.10;;;;;;10440308;28;20202;-76
2024/02/23 14:01:57;;;;;;;0.30;0.30;;;11.00;91.10;;;;;;10452697;28;20226;-76
2024/02/23 14:07:00;;;;;;;0.10;0.10;;;11.00;90.50;;;;;;10447486;28;20222;-76
2024/02/23 14:12:04;;;;;;;0.30;0.30;;;11.00;90.50;;;;;;10452766;28;20217;-77
2024/02/23 14:17:06;;;;;;;0.30;0.30;;;10.90;90.90;;;;;;10446624;28;20201;-76
2024/02/23 14:22:10;;;;;;;0.37;0.37;;;11.00;90.50;;;;;;10445912;28;20233;-78
2024/02/23 14:27:13;;;;;;;0.33;0.33;;;11.00;90.70;;;;;;10440519;28;20217;-77
2024/02/23 14:32:17;;;;;;;0.30;0.30;;;11.00;90.80;;;;;;10436226;28;20815;-77
2024/02/23 14:37:21;;;;;;;0.40;0.40;;;10.90;91.40;;;;;;10445732;28;20202;-77
2024/02/23 14:42:23;;;;;;;0.30;0.30;;;11.00;90.40;;;;;;10425524;28;20222;-77
2024/02/23 14:47:26;;;;;;;0.50;0.50;;;10.90;90.50;;;;;;10424012;28;20213;-77
2024/02/23 14:52:29;;;;;;;0.50;0.50;;;10.90;91.30;;;;;;10423664;28;20265;-77
2024/02/23 14:57:32;;;;;;;0.50;0.50;;;10.90;91.40;;;;;;10428461;28;20579;-77
2024/02/23 15:02:34;;;;;;;0.50;0.50;;;10.90;90.40;;;;;;10426593;28;20695;-77
2024/02/23 15:07:38;;;;;;;0.40;0.40;;;10.90;90.30;;;;;;10425328;28;20224;-77
2024/02/23 15:12:41;;;;;;;0.37;0.37;;;10.90;90.50;;;;;;10441467;28;20213;-77
2024/02/23 15:17:45;;;;;;;0.33;0.33;;;10.90;90.70;;;;;;10428436;28;20251;-77
2024/02/23 15:22:49;;;;;;;0.40;0.40;;;10.90;91.50;;;;;;10436233;28;20232;-77
2024/02/23 15:27:57;;;;;;;0.40;0.40;;;10.80;90.50;;;;;;10417288;28;20291;-77
2024/02/23 15:32:59;;;;;;;0.43;0.43;;;10.80;90.70;;;;;;10433936;28;20225;-77
2024/02/23 15:38:03;;;;;;;0.40;0.40;;;10.70;91.20;;;;;;10435186;28;20193;-77
2024/02/23 15:43:05;;;;;;;0.40;0.40;;;10.80;91.40;;;;;;10409701;28;20813;-77
2024/02/23 15:48:08;;;;;;;0.30;0.30;;;10.80;91.20;;;;;;10414123;28;20236;-77
2024/02/23 15:53:12;;;;;;;0.50;0.50;;;10.80;91.20;;;;;;10429983;28;20773;-77
2024/02/23 15:58:16;;;;;;;0.40;0.40;;;10.70;91.00;;;;;;10436516;28;20259;-77
2024/02/23 16:03:19;;;;;;;0.20;0.20;;;10.70;91.00;;;;;;10410356;28;20226;-77
2024/02/23 16:08:39;;;;;;;0.50;0.50;;;10.60;91.30;;;;;;10442103;28;20274;-76
2024/02/23 16:13:42;;;;;;;0.60;0.60;;;10.60;92.30;;;;;;10441178;28;20228;-77
2024/02/23 16:18:45;;;;;;;0.50;0.50;;;10.50;93.00;;;;;;10423073;28;20658;-77
2024/02/23 16:23:48;;;;;;;0.50;0.50;;;10.50;93.70;;;;;;10441084;28;20217;-77
2024/02/23 16:28:51;;;;;;;0.60;0.60;;;10.50;94.00;;;;;;10435230;28;20224;-77
2024/02/23 16:33:53;;;;;;;0.20;0.20;;;10.40;94.00;;;;;;10439108;28;20224;-77
2024/02/23 16:38:57;;;;;;;0.50;0.50;;;10.30;94.40;;;;;;10439276;28;20609;-77
2024/02/23 16:44:00;;;;;;;0.63;0.63;;;10.30;94.60;;;;;;10435071;28;20217;-77
2024/02/23 16:49:05;;;;;;;0.50;0.50;;;10.20;94.50;;;;;;10437075;28;20240;-77
2024/02/23 16:54:10;;;;;;;0.60;0.60;;;10.10;95.40;;;;;;10421030;28;20245;-77
2024/02/23 16:59:13;;;;;;;0.57;0.57;;;10.00;96.10;;;;;;10408684;28;20201;-77
2024/02/23 17:04:15;;;;;;;0.60;0.60;;;9.90;96.60;;;;;;10430966;28;20282;-77
2024/02/23 17:09:19;;;;;;;0.47;0.47;;;9.90;96.70;;;;;;10414734;28;20225;-77
2024/02/23 17:14:21;;;;;;;0.33;0.33;;;9.80;96.90;;;;;;10440892;28;20615;-77
2024/02/23 17:19:23;;;;;;;0.60;0.60;;;9.80;97.00;;;;;;10444609;28;20201;-77
2024/02/23 17:24:27;;;;;;;0.70;0.70;;;9.70;97.40;;;;;;10437170;28;20217;-77
2024/02/23 17:29:30;;;;;;;0.60;0.60;;;9.70;97.60;;;;;;10435244;28;20218;-77
2024/02/23 17:34:32;;;;;;;0.30;0.30;;;9.60;97.70;;;;;;10424724;28;20279;-77
2024/02/23 17:39:36;;;;;;;0.60;0.60;;;9.50;97.40;;;;;;10413968;28;20804;-77
2024/02/23 17:44:38;;;;;;;0.60;0.60;;;9.50;97.30;;;;;;10416400;28;20577;-77
2024/02/23 17:49:41;;;;;;;0.50;0.50;;;9.40;97.10;;;;;;10405778;28;20226;-77
2024/02/23 17:54:45;;;;;;;0.60;0.60;;;9.30;97.10;;;;;;10421916;28;20286;-77
2024/02/23 17:59:47;;;;;;;0.50;0.50;;;9.30;97.10;;;;;;10404594;28;20197;-76
2024/02/23 18:04:49;;;;;;;0.70;0.70;;;9.20;97.10;;;;;;10408801;28;20217;-77
2024/02/23 18:09:53;;;;;;;0.60;0.60;;;9.10;96.80;;;;;;10427900;28;20691;-77
2024/02/23 18:14:55;;;;;;;0.70;0.70;;;9.10;96.70;;;;;;10446566;28;20227;-77
2024/02/23 18:19:58;;;;;;;0.50;0.50;;;9.10;96.40;;;;;;10439311;28;20223;-77
2024/02/23 18:25:01;;;;;;;0.57;0.57;;;9.00;96.60;;;;;;10440434;28;20235;-77
2024/02/23 18:30:05;;;;;;;0.83;0.83;;;9.00;96.30;;;;;;10415790;28;20233;-77
2024/02/23 18:35:08;;;;;;;0.60;0.60;;;8.90;96.30;;;;;;10439554;28;20302;-77
2024/02/23 18:40:13;;;;;;;0.90;0.90;;;8.70;96.00;;;;;;10434626;28;20189;-77
2024/02/23 18:45:18;;;;;;;0.80;0.80;;;8.60;95.40;;;;;;10446540;28;20225;-77
2024/02/23 18:50:21;;;;;;;0.80;0.80;;;8.60;95.20;;;;;;10441884;28;20699;-77
2024/02/23 18:55:25;;;;;;;0.57;0.57;;;8.60;94.90;;;;;;10442021;28;20225;-77
2024/02/23 19:00:28;;;;;;;0.60;0.60;;;8.50;95.00;;;;;;10447585;28;20552;-77
2024/02/23 19:05:30;;;;;;;0.70;0.70;;;8.50;94.70;;;;;;10439065;28;20233;-76
2024/02/23 19:10:34;;;;;;;0.50;0.50;;;8.40;94.90;;;;;;10439045;28;20569;-76
2024/02/23 19:15:39;;;;;;;0.60;0.60;;;8.30;94.60;;;;;;10446354;28;20224;-77
2024/02/23 19:20:41;;;;;;;0.50;0.50;;;8.20;94.80;;;;;;10426431;28;20201;-76
2024/02/23 19:25:45;;;;;;;0.30;0.30;;;8.10;94.90;;;;;;10438256;28;20276;-76
2024/02/23 19:30:48;;;;;;;0.70;0.70;;;8.10;94.90;;;;;;10445296;28;20224;-76
2024/02/23 19:35:50;;;;;;;0.60;0.60;;;8.00;94.80;;;;;;10445895;28;20279;-76
2024/02/23 19:40:54;;;;;;;0.70;0.70;;;7.90;94.90;;;;;;10437998;28;20581;-76
2024/02/23 19:45:56;;;;;;;0.63;0.63;;;7.90;95.00;;;;;;10441596;28;20262;-76
2024/02/23 19:51:00;;;;;;;0.60;0.60;;;7.80;94.90;;;;;;10404815;28;20295;-77
2024/02/23 19:56:04;;;;;;;0.70;0.70;;;7.80;95.30;;;;;;10393584;28;20663;-76
2024/02/23 20:01:06;;;;;;;0.70;0.70;;;7.70;94.80;;;;;;10415534;28;20252;-76
2024/02/23 20:06:12;;;;;;;0.70;0.70;;;7.70;94.90;;;;;;10412764;28;20194;-76
2024/02/23 20:11:16;;;;;;;0.60;0.60;;;7.70;94.90;;;;;;10406526;28;20229;-77
2024/02/23 20:16:18;;;;;;;0.47;0.47;;;7.70;94.70;;;;;;10419870;28;20248;-76
2024/02/23 20:21:21;;;;;;;0.70;0.70;;;7.70;94.60;;;;;;10430035;28;20218;-77
2024/02/23 20:26:24;;;;;;;0.90;0.90;;;7.70;94.50;;;;;;10435237;28;20201;-76
2024/02/23 20:31:27;;;;;;;0.60;0.60;;;7.70;94.50;;;;;;10437677;28;20237;-77
2024/02/23 20:36:29;;;;;;;0.70;0.70;;;7.70;94.40;;;;;;10412538;28;20197;-77
2024/02/23 20:41:38;;;;;;;0.63;0.63;;;7.60;94.30;;;;;;10407393;28;20238;-77
2024/02/23 20:46:41;;;;;;;0.40;0.40;;;7.60;94.40;;;;;;10427543;28;20268;-76
2024/02/23 20:51:48;;;;;;;0.63;0.63;;;7.50;94.40;;;;;;10423111;28;20278;-76
2024/02/23 20:56:52;;;;;;;0.80;0.80;;;7.40;94.40;;;;;;10422054;28;20248;-76
2024/02/23 21:01:54;;;;;;;0.50;0.50;;;7.40;94.40;;;;;;10448129;28;20220;-76
2024/02/23 21:06:57;;;;;;;0.60;0.60;;;7.30;94.50;;;;;;10450647;28;20253;-77
2024/02/23 21:12:01;;;;;;;0.63;0.63;;;7.30;94.70;;;;;;10443389;28;20220;-77
2024/02/23 21:17:05;;;;;;;0.83;0.83;;;7.20;94.70;;;;;;10433342;28;20193;-77
2024/02/23 21:22:07;;;;;;;0.60;0.60;;;7.20;94.70;;;;;;10417682;28;20216;-76
2024/02/23 21:27:11;;;;;;;0.73;0.73;;;7.10;94.60;;;;;;10432498;28;20205;-76
2024/02/23 21:32:13;;;;;;;0.60;0.60;;;7.10;94.70;;;;;;10419314;28;20226;-76
2024/02/23 21:37:20;;;;;;;0.50;0.50;;;7.10;94.60;;;;;;10424705;28;20201;-77
2024/02/23 21:42:24;;;;;;;0.50;0.50;;;7.00;94.70;;;;;;10427733;28;20213;-77
2024/02/23 21:47:26;;;;;;;0.60;0.60;;;6.90;94.80;;;;;;10424545;28;20675;-78
2024/02/23 21:52:30;;;;;;;0.57;0.57;;;6.80;95.00;;;;;;10418404;28;20225;-77
2024/02/23 21:57:34;;;;;;;0.50;0.50;;;6.80;95.20;;;;;;10416152;28;20220;-76
2024/02/23 22:02:36;;;;;;;0.40;0.40;;;6.80;95.30;;;;;;10423453;28;20226;-76
2024/02/23 22:07:39;;;;;;;0.60;0.60;;;6.70;95.30;;;;;;10428611;28;20683;-76
2024/02/23 22:12:43;;;;;;;0.40;0.40;;;6.70;95.20;;;;;;10406641;28;20632;-76
2024/02/23 22:17:46;;;;;;;0.50;0.50;;;6.70;95.30;;;;;;10408557;28;20660;-77
2024/02/23 22:22:48;;;;;;;0.60;0.60;;;6.60;95.30;;;;;;10415327;28;20287;-79
2024/02/23 22:27:52;;;;;;;0.50;0.50;;;6.50;95.50;;;;;;10416275;28;20218;-76
2024/02/23 22:32:54;;;;;;;0.60;0.60;;;6.60;95.50;;;;;;10410929;28;20279;-77
2024/02/23 22:37:57;;;;;;;0.60;0.60;;;6.60;95.60;;;;;;10412554;28;20214;-77
2024/02/23 22:43:01;;;;;;;0.50;0.50;;;6.60;95.20;;;;;;10433565;28;20232;-77
2024/02/23 22:48:05;;;;;;;0.70;0.70;;;6.50;95.40;;;;;;10424784;28;20225;-77
2024/02/23 22:53:08;;;;;;;0.60;0.60;;;6.50;95.30;;;;;;10427284;28;20252;-76
2024/02/23 22:58:12;;;;;;;0.50;0.50;;;6.50;95.40;;;;;;10440005;28;20271;-77
2024/02/23 23:03:14;;;;;;;0.40;0.40;;;6.50;95.60;;;;;;10421666;28;20213;-76
2024/02/23 23:08:16;;;;;;;0.60;0.60;;;6.50;95.50;;;;;;10440078;28;20235;-76
2024/02/23 23:13:20;;;;;;;0.90;0.90;;;6.50;95.40;;;;;;10436438;28;20222;-76
2024/02/23 23:18:22;;;;;;;0.77;0.77;;;6.50;95.40;;;;;;10440842;28;20255;-77
2024/02/23 23:23:25;;;;;;;0.60;0.60;;;6.40;95.50;;;;;;10444033;28;20222;-76
2024/02/23 23:28:28;;;;;;;0.70;0.70;;;6.40;95.70;;;;;;10436027;28;20571;-77
2024/02/23 23:33:31;;;;;;;0.53;0.53;;;6.40;95.80;;;;;;10424780;28;20296;-77
2024/02/23 23:38:33;;;;;;;0.70;0.70;;;6.40;95.80;;;;;;10441243;28;20207;-76
2024/02/23 23:43:37;;;;;;;0.70;0.70;;;6.30;95.70;;;;;;10434501;28;20648;-77
2024/02/23 23:48:39;;;;;;;0.50;0.50;;;6.30;95.50;;;;;;10406704;28;20218;-77
2024/02/23 23:53:41;;;;;;;0.60;0.60;;;6.30;95.10;;;;;;10436652;28;20278;-77
2024/02/23 23:58:45;;;;;;;0.50;0.50;;;6.40;95.10;;;;;;10429568;28;20193;-77
